Burlingham, New York
Current Conditions -  °F | °C
As of 3:04 AM on Thursday 27 Nov 2014 (Local Time) from KMGJ Reporting Station
Overcast Overcast  
Wind Chill: 32°   Ceiling: 600
Heat Index: 32°   Visibility: 9mi
Dew Point: 30°   Wind: 3mph
Humidity: 92%   Direction: 210°SSW
Pressure: 29.89"   Gusts: NA
Location:  41.59°N, 74.38°W
Report Text: KMGJ 270804Z AUTO 21003KT 9SM BKN006 OVC065 00/M01 A2989 RMK AO2 T00001011 TSNO $
Loading
Personal Weather Stations






























Interactive Weather Map New forecast layout! Learn more

10-Day Weather Forecast

Advertisements
Track Severe Weather on mobile